createdAt,value
2022-12-13T00:01:19.540Z,4.70
2022-12-13T00:03:47.237Z,2.05
2022-12-13T00:06:14.846Z,7.43
2022-12-13T00:08:42.303Z,2.40
2022-12-13T00:11:11.822Z,3.80
2022-12-13T00:13:39.719Z,3.38
2022-12-13T00:16:08.411Z,4.80
2022-12-13T00:18:35.905Z,4.32
2022-12-13T00:21:06.898Z,3.95
2022-12-13T00:23:35.027Z,3.15
2022-12-13T00:26:03.119Z,2.35
2022-12-13T00:28:30.674Z,5.22
2022-12-13T00:31:13.767Z,3.28
2022-12-13T00:33:49.286Z,2.97
2022-12-13T00:36:16.665Z,3.95
2022-12-13T00:38:44.247Z,1.55
2022-12-13T00:41:12.435Z,1.52
2022-12-13T00:43:39.926Z,2.45
2022-12-13T00:46:08.068Z,4.93
2022-12-13T00:48:35.502Z,2.00
2022-12-13T00:51:05.849Z,1.55
2022-12-13T00:53:34.322Z,3.30
2022-12-13T00:56:01.319Z,3.33
2022-12-13T00:58:28.756Z,2.40
2022-12-13T01:01:03.035Z,2.00
2022-12-13T01:03:30.586Z,2.97
2022-12-13T01:06:14.724Z,2.67
2022-12-13T01:08:42.847Z,2.13
2022-12-13T01:11:10.426Z,2.40
2022-12-13T01:13:38.126Z,1.90
2022-12-13T01:16:06.453Z,4.15
2022-12-13T01:18:34.007Z,1.73
2022-12-13T01:21:06.330Z,2.17
2022-12-13T01:23:34.224Z,2.13
2022-12-13T01:26:05.194Z,2.70
2022-12-13T01:28:32.891Z,2.08
2022-12-13T01:31:01.830Z,2.50
2022-12-13T01:33:29.962Z,2.53
2022-12-13T01:35:57.250Z,4.43
2022-12-13T01:38:26.242Z,2.70
2022-12-13T01:40:59.451Z,1.90
2022-12-13T01:43:49.779Z,2.25
2022-12-13T01:46:18.161Z,2.08
2022-12-13T01:48:58.235Z,1.92
2022-12-13T01:53:53.084Z,1.70
2022-12-13T01:56:22.899Z,1.90
2022-12-13T01:58:51.863Z,2.35
2022-12-13T02:01:19.410Z,2.47
2022-12-13T02:03:46.923Z,3.67
2022-12-13T02:06:18.430Z,2.97
2022-12-13T02:08:46.937Z,1.80
2022-12-13T02:11:14.510Z,3.83
2022-12-13T02:13:42.641Z,2.60
2022-12-13T02:16:09.832Z,2.50
2022-12-13T02:18:50.423Z,1.60
2022-12-13T02:21:29.620Z,2.45
2022-12-13T02:24:15.482Z,2.08
2022-12-13T02:26:47.778Z,3.13
2022-12-13T02:29:33.796Z,2.47
2022-12-13T02:32:17.548Z,3.42
2022-12-13T02:34:47.903Z,1.77
2022-12-13T02:37:38.746Z,3.80
2022-12-13T02:40:24.838Z,2.67
2022-12-13T02:42:59.576Z,2.22
2022-12-13T02:45:33.545Z,2.50
2022-12-13T02:48:01.954Z,2.85
2022-12-13T02:50:30.808Z,2.20
2022-12-13T02:52:58.726Z,1.60
2022-12-13T02:55:28.309Z,4.53
2022-12-13T02:57:55.740Z,3.17
2022-12-13T03:00:24.919Z,3.13
2022-12-13T03:03:11.784Z,3.03
2022-12-13T03:06:00.823Z,3.70
2022-12-13T03:08:36.028Z,2.13
2022-12-13T03:11:05.644Z,2.47
2022-12-13T03:13:38.450Z,4.47
2022-12-13T03:16:29.319Z,4.00
2022-12-13T03:19:00.882Z,1.98
2022-12-13T03:21:28.396Z,5.28
2022-12-13T03:23:55.388Z,2.22
2022-12-13T03:26:25.212Z,2.72
2022-12-13T03:28:52.840Z,2.60
2022-12-13T03:31:20.497Z,4.10
2022-12-13T03:33:47.650Z,2.97
2022-12-13T03:36:15.421Z,3.92
2022-12-13T03:38:42.538Z,2.80
2022-12-13T03:41:11.451Z,3.55
2022-12-13T03:43:39.864Z,5.50
2022-12-13T03:46:07.979Z,3.70
2022-12-13T03:48:35.522Z,4.30
2022-12-13T03:51:03.032Z,4.50
2022-12-13T03:53:33.388Z,4.15
2022-12-13T03:56:02.600Z,2.90
2022-12-13T03:58:35.953Z,3.33
2022-12-13T04:01:06.338Z,4.75
2022-12-13T04:03:34.260Z,5.32
2022-12-13T04:06:01.663Z,4.90
2022-12-13T04:08:28.767Z,6.38
2022-12-13T04:10:56.120Z,4.53
2022-12-13T04:13:35.194Z,2.50
2022-12-13T04:16:03.501Z,5.28
2022-12-13T04:18:30.905Z,2.80
2022-12-13T04:20:58.209Z,6.88
2022-12-13T04:23:25.264Z,4.95
2022-12-13T04:25:52.655Z,5.07
2022-12-13T04:28:22.240Z,12.02
2022-12-13T04:30:53.001Z,48.55
2022-12-13T04:33:22.077Z,17.27
2022-12-13T04:35:49.617Z,5.18
2022-12-13T04:38:16.934Z,25.15
2022-12-13T04:40:44.360Z,19.17
2022-12-13T04:43:11.633Z,5.97
2022-12-13T04:45:39.130Z,7.72
2022-12-13T04:48:06.230Z,9.20
2022-12-13T04:50:33.837Z,5.88
2022-12-13T04:53:01.023Z,4.75
2022-12-13T04:55:28.404Z,3.80
2022-12-13T04:57:55.572Z,4.07
2022-12-13T05:00:23.394Z,6.22
2022-12-13T05:02:50.698Z,6.35
2022-12-13T05:05:18.906Z,3.67
2022-12-13T05:07:46.268Z,7.55
2022-12-13T05:10:33.756Z,7.43
2022-12-13T05:13:30.210Z,7.93
2022-12-13T05:16:05.579Z,5.70
2022-12-13T05:18:33.281Z,8.35
2022-12-13T05:21:04.591Z,39.47
2022-12-13T05:23:31.708Z,195.82
2022-12-13T05:25:59.162Z,213.43
2022-12-13T05:28:29.025Z,159.10
2022-12-13T05:30:57.990Z,23.80
2022-12-13T05:33:25.715Z,13.43
2022-12-13T05:35:57.824Z,10.68
2022-12-13T05:38:27.899Z,34.65
2022-12-13T05:40:55.430Z,67.78
2022-12-13T05:43:24.090Z,31.85
2022-12-13T05:46:11.623Z,28.45
2022-12-13T05:48:38.840Z,10.68
2022-12-13T05:51:11.108Z,6.88
2022-12-13T05:53:39.819Z,9.63
2022-12-13T05:56:07.612Z,7.05
2022-12-13T05:58:35.937Z,4.40
2022-12-13T06:01:08.166Z,6.40
2022-12-13T06:03:35.367Z,3.28
2022-12-13T06:06:03.628Z,8.18
2022-12-13T06:08:31.165Z,7.38
2022-12-13T06:11:11.215Z,7.55
2022-12-13T06:13:42.627Z,3.58
2022-12-13T06:16:22.532Z,4.75
2022-12-13T06:19:00.965Z,7.05
2022-12-13T06:21:41.681Z,8.63
2022-12-13T06:24:16.718Z,6.72
2022-12-13T06:26:45.183Z,4.50
2022-12-13T06:29:23.496Z,4.50
2022-12-13T06:32:01.203Z,4.38
2022-12-13T06:34:30.442Z,19.52
2022-12-13T06:36:57.836Z,61.38
2022-12-13T06:39:25.102Z,61.65
2022-12-13T06:42:01.713Z,40.55
2022-12-13T06:44:28.806Z,60.42
2022-12-13T06:47:11.839Z,57.38
2022-12-13T06:49:41.352Z,107.13
2022-12-13T06:52:13.169Z,54.20
2022-12-13T06:54:40.866Z,91.55
2022-12-13T06:57:08.326Z,49.40
2022-12-13T06:59:35.793Z,14.82
2022-12-13T07:02:04.131Z,14.07
2022-12-13T07:04:31.939Z,8.45
2022-12-13T07:07:01.869Z,8.27
2022-12-13T07:09:30.848Z,8.63
2022-12-13T07:11:58.375Z,9.40
2022-12-13T07:14:25.611Z,10.50
2022-12-13T07:16:56.664Z,7.57
2022-12-13T07:19:28.482Z,9.25
2022-12-13T07:22:06.002Z,6.35
2022-12-13T07:24:34.571Z,7.55
2022-12-13T07:27:02.319Z,8.00
2022-12-13T07:29:29.579Z,11.25
2022-12-13T07:32:01.692Z,8.70
2022-12-13T07:34:29.613Z,8.60
2022-12-13T07:36:57.068Z,8.05
2022-12-13T07:39:26.265Z,9.30
2022-12-13T07:41:57.491Z,8.93
2022-12-13T07:44:24.984Z,17.33
2022-12-13T07:46:52.574Z,15.93
2022-12-13T07:49:19.727Z,26.65
2022-12-13T07:51:47.950Z,13.68
2022-12-13T07:54:15.025Z,17.95
2022-12-13T07:56:42.730Z,14.13
2022-12-13T07:59:10.411Z,17.38
2022-12-13T08:01:37.961Z,10.40
2022-12-13T08:04:05.322Z,9.63
2022-12-13T08:06:37.093Z,19.90
2022-12-13T08:09:04.321Z,19.48
2022-12-13T08:11:31.773Z,12.32
2022-12-13T08:13:58.903Z,11.82
2022-12-13T08:16:29.404Z,13.43
2022-12-13T08:19:02.305Z,12.73
2022-12-13T08:21:54.043Z,7.45
2022-12-13T08:24:31.733Z,9.40
2022-12-13T08:27:01.516Z,9.80
2022-12-13T08:32:05.364Z,7.05
2022-12-13T08:34:32.337Z,11.55
2022-12-13T08:37:02.417Z,13.90
2022-12-13T08:39:34.769Z,6.18
2022-12-13T08:42:14.900Z,7.47
2022-12-13T08:44:43.075Z,7.53
2022-12-13T08:47:10.432Z,6.90
2022-12-13T08:49:37.574Z,8.63
2022-12-13T08:52:04.973Z,11.73
2022-12-13T08:54:33.204Z,13.93
2022-12-13T08:57:02.639Z,13.77
2022-12-13T08:59:29.844Z,9.68
2022-12-13T09:02:01.616Z,21.33
2022-12-13T09:04:32.393Z,9.75
2022-12-13T09:07:01.310Z,10.43
2022-12-13T09:09:29.582Z,9.32
2022-12-13T09:11:59.628Z,6.95
2022-12-13T09:14:33.885Z,10.35
2022-12-13T09:17:03.670Z,8.77
2022-12-13T09:19:37.383Z,10.65
2022-12-13T09:22:05.549Z,10.27
2022-12-13T09:24:36.775Z,9.50
2022-12-13T09:27:09.573Z,11.77
2022-12-13T09:29:37.793Z,9.65
2022-12-13T09:32:05.612Z,10.07
2022-12-13T09:34:35.315Z,14.98
2022-12-13T09:37:02.725Z,10.43
2022-12-13T09:39:29.924Z,6.53
2022-12-13T09:42:00.700Z,10.07
2022-12-13T09:44:46.635Z,6.45
2022-12-13T09:47:24.551Z,10.63
2022-12-13T09:49:53.742Z,8.13
2022-12-13T09:52:23.500Z,10.25
2022-12-13T09:54:53.551Z,16.00
2022-12-13T09:57:32.046Z,10.02
2022-12-13T10:00:07.120Z,7.65
2022-12-13T10:02:47.818Z,7.78
2022-12-13T10:05:35.858Z,29.55
2022-12-13T10:08:09.488Z,8.65
2022-12-13T10:10:36.563Z,10.07
2022-12-13T10:13:10.207Z,9.50
2022-12-13T10:15:39.037Z,11.35
2022-12-13T10:18:06.922Z,10.70
2022-12-13T10:20:34.899Z,16.85
2022-12-13T10:23:31.252Z,15.43
2022-12-13T10:25:51.378Z,7.15
2022-12-13T10:30:46.752Z,12.43
2022-12-13T10:33:29.518Z,6.70
2022-12-13T10:36:16.262Z,8.23
2022-12-13T10:38:45.595Z,13.88
2022-12-13T10:41:25.963Z,14.82
2022-12-13T10:44:07.258Z,10.90
2022-12-13T10:46:38.841Z,9.30
2022-12-13T10:49:21.027Z,24.05
2022-12-13T10:51:50.369Z,14.73
2022-12-13T10:54:22.726Z,11.73
2022-12-13T10:56:51.169Z,13.50
2022-12-13T10:59:20.829Z,12.32
2022-12-13T11:01:47.824Z,11.55
2022-12-13T11:04:26.940Z,8.77
2022-12-13T11:06:55.139Z,8.25
2022-12-13T11:09:25.687Z,11.82
2022-12-13T11:11:58.762Z,7.07
2022-12-13T11:14:31.827Z,12.40
2022-12-13T11:17:10.178Z,11.10
2022-12-13T11:19:48.875Z,12.10
2022-12-13T11:22:23.955Z,10.48
2022-12-13T11:24:52.984Z,73.20
2022-12-13T11:27:38.337Z,9.32
2022-12-13T11:30:14.670Z,14.00
2022-12-13T11:32:47.937Z,24.88
2022-12-13T11:35:49.709Z,15.23
2022-12-13T11:38:35.149Z,24.42
2022-12-13T11:41:31.447Z,12.30
2022-12-13T11:44:20.202Z,44.90
2022-12-13T11:46:58.474Z,11.18
2022-12-13T11:49:34.280Z,10.65
2022-12-13T11:52:07.758Z,6.30
2022-12-13T11:54:50.873Z,19.83
2022-12-13T11:57:33.237Z,31.50
2022-12-13T12:00:34.044Z,22.73
2022-12-13T12:10:29.504Z,16.67
2022-12-13T12:12:47.887Z,18.83
2022-12-13T12:15:41.732Z,8.38
2022-12-13T12:22:14.155Z,13.40
2022-12-13T12:25:49.886Z,12.02
2022-12-13T12:28:55.847Z,12.40
2022-12-13T12:32:20.743Z,12.75
2022-12-13T12:39:34.890Z,11.45
2022-12-13T12:42:20.600Z,18.77
2022-12-13T12:45:58.027Z,19.30
2022-12-13T12:49:30.861Z,16.23
2022-12-13T12:52:34.794Z,10.93
2022-12-13T12:56:04.721Z,23.73
2022-12-13T12:58:52.708Z,13.98
2022-12-13T13:01:37.674Z,25.48
2022-12-13T13:04:22.604Z,22.83
2022-12-13T13:07:22.680Z,18.10
2022-12-13T13:10:16.197Z,29.20
2022-12-13T13:13:12.971Z,15.77
2022-12-13T13:15:57.548Z,20.83
2022-12-13T13:18:53.758Z,28.95
2022-12-13T13:21:26.204Z,9.05
2022-12-13T13:24:03.337Z,6.50
2022-12-13T13:27:04.821Z,17.25
2022-12-13T13:29:43.509Z,7.10
2022-12-13T13:32:29.337Z,14.25
2022-12-13T13:35:21.147Z,14.30
2022-12-13T13:37:51.952Z,11.88
2022-12-13T13:40:31.842Z,22.05
2022-12-13T13:43:16.530Z,15.35
2022-12-13T13:46:07.508Z,25.42
2022-12-13T13:49:10.090Z,22.00
2022-12-13T13:55:03.853Z,9.45
2022-12-13T13:58:08.299Z,13.70
2022-12-13T14:01:10.414Z,15.68
2022-12-13T14:04:15.886Z,23.95
2022-12-13T14:06:51.280Z,21.50
2022-12-13T14:09:39.266Z,9.13
2022-12-13T14:12:06.324Z,28.30
2022-12-13T14:14:52.730Z,18.90
2022-12-13T14:17:47.109Z,92.35
2022-12-13T14:20:24.690Z,18.50
2022-12-13T14:23:10.568Z,46.95
2022-12-13T14:25:51.118Z,34.92
2022-12-13T14:28:38.036Z,17.95
2022-12-13T14:31:17.062Z,27.27
2022-12-13T14:33:48.039Z,68.30
2022-12-13T14:36:23.834Z,39.65
2022-12-13T14:39:26.080Z,43.58
2022-12-13T14:42:25.528Z,25.20
2022-12-13T14:45:00.635Z,20.10
2022-12-13T14:47:46.910Z,23.40
2022-12-13T14:50:20.649Z,32.05
2022-12-13T14:53:16.327Z,39.60
2022-12-13T14:56:44.209Z,33.60
2022-12-13T15:00:33.313Z,25.20
2022-12-13T15:06:34.586Z,22.50
2022-12-13T15:09:10.838Z,21.13
2022-12-13T15:11:44.050Z,27.65
2022-12-13T15:14:37.934Z,39.05
2022-12-13T15:17:13.431Z,20.65
2022-12-13T15:20:12.154Z,21.55
2022-12-13T15:23:41.884Z,31.05
2022-12-13T15:26:30.228Z,33.50
2022-12-13T15:29:10.128Z,124.57
2022-12-13T15:31:39.111Z,27.02
2022-12-13T15:34:29.441Z,25.58
2022-12-13T15:37:01.142Z,21.08
2022-12-13T15:39:29.020Z,41.10
2022-12-13T15:41:57.233Z,42.83
2022-12-13T15:44:32.713Z,24.52
2022-12-13T15:47:12.864Z,38.58
2022-12-13T15:49:57.697Z,54.85
2022-12-13T15:52:27.150Z,31.67
2022-12-13T15:54:58.955Z,37.88
2022-12-13T15:57:53.198Z,52.70
2022-12-13T16:00:32.098Z,45.55
2022-12-13T16:03:08.651Z,36.33
2022-12-13T16:05:40.690Z,81.07
2022-12-13T16:08:17.538Z,111.60
2022-12-13T16:10:51.588Z,99.55
2022-12-13T16:13:32.850Z,258.20
2022-12-13T16:16:10.045Z,120.13
2022-12-13T16:18:46.243Z,66.45
2022-12-13T16:21:14.726Z,56.08
2022-12-13T16:23:48.507Z,37.15
2022-12-13T16:26:21.431Z,57.95
2022-12-13T16:28:48.905Z,40.40
2022-12-13T16:31:21.487Z,50.63
2022-12-13T16:33:49.972Z,65.03
2022-12-13T16:36:18.173Z,76.75
2022-12-13T16:38:45.915Z,41.20
2022-12-13T16:41:14.757Z,36.92
2022-12-13T16:43:53.043Z,28.25
2022-12-13T16:47:17.880Z,29.88
2022-12-13T16:49:19.057Z,28.45
2022-12-13T16:51:48.617Z,26.35
2022-12-13T16:54:17.753Z,35.50
2022-12-13T16:56:45.263Z,28.48
2022-12-13T16:59:18.467Z,20.40
2022-12-13T17:01:46.030Z,27.10
2022-12-13T17:04:19.610Z,27.15
2022-12-13T17:06:49.012Z,33.63
2022-12-13T17:09:17.444Z,19.93
2022-12-13T17:11:45.553Z,15.98
2022-12-13T17:14:13.226Z,18.88
2022-12-13T17:16:40.729Z,18.55
2022-12-13T17:19:10.134Z,16.40
2022-12-13T17:21:37.806Z,16.47
2022-12-13T17:24:05.514Z,18.42
2022-12-13T17:26:33.517Z,20.88
2022-12-13T17:29:05.015Z,20.67
2022-12-13T17:31:36.126Z,22.75
2022-12-13T17:34:04.610Z,19.02
2022-12-13T17:36:31.923Z,28.90
2022-12-13T17:38:59.836Z,33.25
2022-12-13T17:41:27.230Z,33.30
2022-12-13T17:43:58.395Z,25.30
2022-12-13T17:46:25.806Z,16.63
2022-12-13T17:48:53.805Z,48.63
2022-12-13T17:51:21.675Z,49.53
2022-12-13T17:53:49.494Z,51.00
2022-12-13T17:56:18.076Z,77.03
2022-12-13T17:58:47.492Z,91.82
2022-12-13T18:01:23.125Z,66.43
2022-12-13T18:03:55.863Z,46.35
2022-12-13T18:06:25.075Z,50.28
2022-12-13T18:08:53.614Z,60.88
2022-12-13T18:11:33.010Z,68.00
2022-12-13T18:14:01.920Z,44.92
2022-12-13T18:16:36.382Z,41.72
2022-12-13T18:19:07.883Z,38.28
2022-12-13T18:21:37.366Z,43.83
2022-12-13T18:24:06.407Z,39.37
2022-12-13T18:26:35.131Z,49.30
2022-12-13T18:29:03.684Z,26.02
2022-12-13T18:31:31.383Z,36.35
2022-12-13T18:33:59.909Z,27.73
2022-12-13T18:36:27.652Z,28.48
2022-12-13T18:38:56.909Z,31.80
2022-12-13T18:41:25.407Z,28.13
2022-12-13T18:43:59.999Z,27.25
2022-12-13T18:46:28.357Z,30.75
2022-12-13T18:48:59.965Z,21.58
2022-12-13T18:51:28.022Z,26.08
2022-12-13T18:53:56.595Z,27.25
2022-12-13T18:56:24.771Z,31.73
2022-12-13T18:58:52.630Z,32.05
2022-12-13T19:01:21.503Z,15.57
2022-12-13T19:03:51.158Z,19.20
2022-12-13T19:06:21.338Z,29.98
2022-12-13T19:08:53.396Z,25.85
2022-12-13T19:11:21.937Z,34.25
2022-12-13T19:13:51.450Z,22.42
2022-12-13T19:16:20.635Z,27.05
2022-12-13T19:21:18.569Z,40.67
2022-12-13T19:23:53.483Z,46.20
2022-12-13T19:26:25.563Z,37.42
2022-12-13T19:28:53.145Z,36.42
2022-12-13T19:31:24.257Z,45.65
2022-12-13T19:33:56.970Z,58.17
2022-12-13T19:36:24.898Z,37.65
2022-12-13T19:38:55.768Z,43.28
2022-12-13T19:41:23.265Z,38.22
2022-12-13T19:43:53.059Z,47.70
2022-12-13T19:46:21.259Z,81.03
2022-12-13T19:48:49.448Z,33.17
2022-12-13T19:51:17.843Z,23.42
2022-12-13T19:53:46.221Z,33.60
2022-12-13T19:56:17.968Z,30.98
2022-12-13T19:58:47.741Z,29.05
2022-12-13T20:01:16.579Z,49.37
2022-12-13T20:03:48.770Z,33.92
2022-12-13T20:06:18.392Z,25.13
2022-12-13T20:08:47.008Z,37.85
2022-12-13T20:11:16.467Z,32.97
2022-12-13T20:16:17.177Z,39.25
2022-12-13T20:18:49.034Z,39.08
2022-12-13T20:21:17.007Z,45.92
2022-12-13T20:23:49.068Z,35.42
2022-12-13T20:26:34.059Z,14.93
2022-12-13T20:29:02.194Z,19.08
2022-12-13T20:31:30.581Z,17.92
2022-12-13T20:33:59.949Z,26.52
2022-12-13T20:36:29.131Z,29.10
2022-12-13T20:41:26.609Z,26.27
2022-12-13T20:43:55.384Z,34.40
2022-12-13T20:46:23.105Z,28.77
2022-12-13T20:48:51.413Z,35.08
2022-12-13T20:51:20.722Z,37.03
2022-12-13T20:53:49.354Z,20.08
2022-12-13T20:56:18.060Z,34.63
2022-12-13T20:58:46.555Z,76.97
2022-12-13T21:01:18.351Z,40.20
2022-12-13T21:03:46.485Z,38.50
2022-12-13T21:06:14.150Z,33.47
2022-12-13T21:09:00.202Z,43.15
2022-12-13T21:11:29.074Z,32.80
2022-12-13T21:14:02.431Z,28.30
2022-12-13T21:16:36.272Z,32.05
2022-12-13T21:19:04.620Z,29.52
2022-12-13T21:21:32.210Z,29.75
2022-12-13T21:24:00.260Z,29.73
2022-12-13T21:26:34.598Z,30.00
2022-12-13T21:29:05.496Z,34.88
2022-12-13T21:31:33.380Z,39.78
2022-12-13T21:34:02.410Z,32.22
2022-12-13T21:36:31.440Z,34.87
2022-12-13T21:39:00.713Z,40.70
2022-12-13T21:41:28.229Z,41.33
2022-12-13T21:43:56.640Z,44.70
2022-12-13T21:46:35.780Z,27.40
2022-12-13T21:49:14.321Z,34.50
2022-12-13T21:51:47.442Z,28.15
2022-12-13T21:54:15.820Z,36.13
2022-12-13T21:57:01.702Z,33.92
2022-12-13T21:59:29.290Z,33.13
2022-12-13T22:02:14.840Z,37.85
2022-12-13T22:04:43.890Z,33.13
2022-12-13T22:07:14.669Z,28.95
2022-12-13T22:09:42.293Z,24.90
2022-12-13T22:12:11.138Z,25.55
2022-12-13T22:17:06.209Z,28.40
2022-12-13T22:19:33.845Z,28.08
2022-12-13T22:22:01.130Z,30.88
2022-12-13T22:24:28.636Z,25.65
2022-12-13T22:26:55.914Z,28.25
2022-12-13T22:29:23.785Z,27.65
2022-12-13T22:31:51.066Z,34.33
2022-12-13T22:34:18.800Z,35.53
2022-12-13T22:36:45.907Z,31.13
2022-12-13T22:39:20.483Z,31.58
2022-12-13T22:41:48.588Z,28.27
2022-12-13T22:44:17.591Z,29.45
2022-12-13T22:46:45.396Z,24.00
2022-12-13T22:49:13.165Z,27.42
2022-12-13T22:51:40.605Z,31.60
2022-12-13T22:54:08.292Z,23.55
2022-12-13T22:56:35.466Z,24.35
2022-12-13T22:59:04.107Z,23.73
2022-12-13T23:01:32.469Z,23.13
2022-12-13T23:04:00.210Z,24.98
2022-12-13T23:06:29.240Z,25.17
2022-12-13T23:08:57.980Z,22.40
2022-12-13T23:11:44.267Z,24.50
2022-12-13T23:14:12.823Z,19.15
2022-12-13T23:16:40.687Z,22.42
2022-12-13T23:19:40.259Z,29.58
2022-12-13T23:21:57.749Z,24.23
2022-12-13T23:24:25.776Z,20.98
2022-12-13T23:26:52.830Z,22.35
2022-12-13T23:29:20.344Z,22.48
2022-12-13T23:31:48.524Z,20.67
2022-12-13T23:34:16.659Z,27.45
2022-12-13T23:36:43.908Z,26.80
2022-12-13T23:39:11.547Z,24.48
2022-12-13T23:41:38.688Z,20.30
2022-12-13T23:44:06.438Z,26.80
2022-12-13T23:46:34.892Z,26.77
2022-12-13T23:49:04.235Z,33.30
2022-12-13T23:51:32.911Z,25.00
2022-12-13T23:54:19.377Z,25.20
2022-12-13T23:56:47.153Z,24.05
2022-12-13T23:59:14.498Z,23.75
